Time;durP1;ratioP1;P1;durP2;ratioP2;P2;SDS_P1;SDS_P2;PMS_P1;PMS_P2;Temp;Humidity;BMP_temperature;BMP_pressure;BME280_temperature;BME280_humidity;BME280_pressure;Samples;Min_cycle;Max_cycle;Signal;HPM_P1;HPM_P2
2022/03/01 00:01:42;;;;;;;130.53;46.23;;;;;;;-4.92;70.66;100869.02;2253838;79;20955;-79
2022/03/01 00:04:43;;;;;;;124.20;46.00;;;;;;;-4.95;70.77;100865.24;2252182;79;21291;-79
2022/03/01 00:07:44;;;;;;;99.17;39.67;;;;;;;-4.97;70.60;100862.91;2251444;79;21053;-79
2022/03/01 00:10:45;;;;;;;95.63;38.67;;;;;;;-5.00;70.61;100866.04;2251674;79;20920;-79
2022/03/01 00:13:45;;;;;;;90.87;36.50;;;;;;;-5.03;70.40;100867.36;2252532;78;20909;-78
2022/03/01 00:16:49;;;;;;;76.00;32.70;;;;;;;-5.08;70.11;100868.53;2252330;78;20920;-78
2022/03/01 00:22:52;;;;;;;85.17;33.40;;;;;;;-5.13;70.41;100865.50;2224667;79;21019;-78
2022/03/01 00:25:52;;;;;;;85.97;33.43;;;;;;;-5.16;70.15;100863.53;2252574;79;20881;-77
2022/03/01 00:28:53;;;;;;;79.20;32.40;;;;;;;-5.19;70.01;100864.48;2252127;78;21016;-77
2022/03/01 00:31:53;;;;;;;70.63;30.13;;;;;;;-5.19;70.73;100858.12;2252414;78;20932;-78
2022/03/01 00:34:54;;;;;;;72.87;31.27;;;;;;;-5.16;70.90;100862.26;2252068;78;20940;-78
2022/03/01 00:37:54;;;;;;;69.83;28.60;;;;;;;-5.18;70.74;100862.84;2252294;79;20921;-78
2022/03/01 00:40:55;;;;;;;65.20;29.43;;;;;;;-5.20;70.70;100861.78;2259761;78;20973;-78
2022/03/01 00:43:56;;;;;;;74.80;32.23;;;;;;;-5.23;70.87;100858.88;2283779;78;20891;-78
2022/03/01 00:46:57;;;;;;;69.27;31.17;;;;;;;-5.24;70.68;100869.80;2284788;78;20924;-78
2022/03/01 00:50:02;;;;;;;72.23;31.93;;;;;;;-5.28;70.67;100864.75;2283628;78;21013;-77
2022/03/01 00:53:02;;;;;;;;;;;;;;;-5.29;70.65;100862.95;2286163;78;21025;-78
2022/03/01 00:56:04;;;;;;;76.33;32.23;;;;;;;-5.28;70.68;100862.58;2283723;78;20112;-78
2022/03/01 00:59:04;;;;;;;82.57;37.37;;;;;;;-5.31;70.55;100858.44;2284538;78;20969;-78
2022/03/01 01:02:07;;;;;;;98.70;42.57;;;;;;;-5.32;70.47;100863.00;2283817;78;20998;-79
2022/03/01 01:05:09;;;;;;;110.70;45.23;;;;;;;-5.35;70.67;100864.84;2283556;78;21077;-79
2022/03/01 01:08:12;;;;;;;90.13;38.57;;;;;;;-5.36;70.74;100857.05;2263381;78;21002;-78
2022/03/01 01:14:18;;;;;;;81.73;35.10;;;;;;;-5.40;70.39;100867.28;2264135;78;20971;-79
2022/03/01 01:17:21;;;;;;;80.03;34.70;;;;;;;-5.43;70.35;100865.68;2283886;78;20994;-78
2022/03/01 01:20:22;;;;;;;75.77;33.17;;;;;;;-5.48;70.41;100866.83;2283953;78;21310;-78
2022/03/01 01:23:31;;;;;;;75.57;34.63;;;;;;;-5.49;70.12;100873.56;2282596;78;21081;-78
2022/03/01 01:29:42;;;;;;;77.63;33.60;;;;;;;-5.47;70.68;100868.27;2262345;78;20938;-78
2022/03/01 01:39:00;;;;;;;87.03;37.33;;;;;;;-5.57;70.57;100853.13;2252973;79;21029;-79
2022/03/01 01:42:01;;;;;;;78.97;33.63;;;;;;;-5.58;70.77;100848.41;2261282;77;21012;-79
2022/03/01 01:48:08;;;;;;;67.77;30.60;;;;;;;-5.56;69.88;100840.94;2209934;80;21022;-78
2022/03/01 01:51:09;;;;;;;72.27;32.53;;;;;;;-5.59;69.78;100843.16;2219155;79;20959;-77
2022/03/01 01:54:17;;;;;;;78.73;34.03;;;;;;;-5.62;69.48;100841.56;2250708;77;20979;-78
2022/03/01 02:10:16;;;;;;;88.73;36.37;;;;;;;-5.63;70.27;100849.94;2206998;81;21034;-78
2022/03/01 02:13:17;;;;;;;85.77;38.10;;;;;;;-5.67;70.18;100848.70;2242786;79;20948;-78
2022/03/01 02:16:17;;;;;;;87.37;39.67;;;;;;;-5.75;69.82;100844.44;2249656;79;20927;-78
2022/03/01 02:19:18;;;;;;;87.10;38.50;;;;;;;-5.81;69.83;100843.78;2249729;79;20960;-78
2022/03/01 02:22:18;;;;;;;87.07;37.97;;;;;;;-5.80;70.37;100845.59;2249960;79;20951;-78
2022/03/01 02:25:19;;;;;;;88.17;38.23;;;;;;;-5.78;70.35;100850.47;2249875;78;21401;-79
2022/03/01 02:28:19;;;;;;;89.97;37.20;;;;;;;-5.78;70.51;100845.39;2249819;78;21303;-78
2022/03/01 02:31:20;;;;;;;90.40;37.03;;;;;;;-5.81;70.09;100839.97;2249910;79;21307;-78
2022/03/01 02:34:20;;;;;;;92.00;38.50;;;;;;;-5.85;69.91;100841.28;2249884;78;20893;-78
2022/03/01 02:37:21;;;;;;;88.80;36.80;;;;;;;-5.92;69.88;100846.48;2249914;79;20895;-79
2022/03/01 02:40:21;;;;;;;80.83;37.47;;;;;;;-5.95;70.05;100846.52;2249592;78;20967;-79
2022/03/01 02:43:22;;;;;;;87.10;37.90;;;;;;;-5.98;70.28;100844.55;2277584;77;21036;-79
2022/03/01 02:46:22;;;;;;;180.47;41.97;;;;;;;-5.97;70.06;100841.27;2281048;78;20985;-78
2022/03/01 02:49:23;;;;;;;88.87;38.80;;;;;;;-5.96;69.98;100840.53;2281092;78;20993;-78
2022/03/01 02:52:23;;;;;;;78.40;35.00;;;;;;;-5.99;69.90;100842.75;2281796;78;20962;-80
2022/03/01 02:55:24;;;;;;;82.63;32.90;;;;;;;-6.02;69.90;100841.15;2281409;78;21273;-79
2022/03/01 02:58:24;;;;;;;66.57;30.83;;;;;;;-6.07;69.68;100834.63;2280872;78;20958;-78
2022/03/01 03:01:25;;;;;;;72.10;32.20;;;;;;;-6.08;69.61;100821.75;2282138;78;20918;-78
2022/03/01 03:04:25;;;;;;;72.77;32.27;;;;;;;-6.08;69.66;100815.39;2282212;78;20957;-79
2022/03/01 03:07:26;;;;;;;69.00;32.00;;;;;;;-6.10;69.58;100815.23;2281889;78;20942;-78
2022/03/01 03:10:27;;;;;;;69.83;32.73;;;;;;;-6.09;70.05;100808.14;2282031;78;20894;-78
2022/03/01 03:13:28;;;;;;;73.73;34.07;;;;;;;-6.09;69.92;100805.59;2281969;78;21046;-78
2022/03/01 03:16:28;;;;;;;75.57;34.77;;;;;;;-6.09;69.58;100813.22;2281600;78;20914;-78
2022/03/01 03:19:29;;;;;;;79.53;36.60;;;;;;;-6.11;69.72;100809.24;2280683;78;21376;-78
2022/03/01 03:22:31;;;;;;;76.67;36.07;;;;;;;-6.10;69.88;100808.88;2259598;78;20994;-78
2022/03/01 03:25:31;;;;;;;208.30;43.90;;;;;;;-6.11;69.94;100801.98;2279663;78;20966;-77
2022/03/01 03:28:32;;;;;;;484.17;72.50;;;;;;;-6.10;70.26;100805.06;2279299;78;21021;-78
2022/03/01 03:31:33;;;;;;;97.83;35.07;;;;;;;-6.08;70.31;100797.59;2280900;78;20966;-83
2022/03/01 03:34:33;;;;;;;175.30;39.17;;;;;;;-6.12;70.05;100795.09;2281421;78;20910;-82
2022/03/01 03:37:34;;;;;;;83.13;35.97;;;;;;;-6.15;69.70;100791.86;2282032;78;20922;-82
2022/03/01 03:40:34;;;;;;;72.03;34.53;;;;;;;-6.21;69.55;100789.92;2282120;78;20903;-82
2022/03/01 03:43:34;;;;;;;81.63;35.20;;;;;;;-6.23;69.69;100796.48;2253315;77;20968;-82
2022/03/01 03:46:35;;;;;;;78.57;30.93;;;;;;;-6.25;69.84;100801.77;2249662;79;21355;-81
2022/03/01 03:49:35;;;;;;;78.63;33.23;;;;;;;-6.25;69.81;100805.95;2249609;78;21279;-82
2022/03/01 03:52:36;;;;;;;96.83;35.80;;;;;;;-6.30;69.61;100797.83;2249875;78;20947;-82
2022/03/01 03:55:37;;;;;;;857.83;101.00;;;;;;;-6.35;69.43;100795.16;2249640;79;20924;-81
2022/03/01 03:58:37;;;;;;;94.50;34.60;;;;;;;-6.33;69.47;100790.24;2249129;79;20921;-82
2022/03/01 04:01:40;;;;;;;77.33;29.90;;;;;;;-6.36;69.44;100785.73;2249515;78;21303;-81
2022/03/01 04:04:40;;;;;;;70.87;30.43;;;;;;;-6.40;69.53;100778.51;2249669;79;20956;-81
2022/03/01 04:07:41;;;;;;;75.97;32.10;;;;;;;-6.45;69.62;100779.28;2249531;78;20948;-81
2022/03/01 04:10:41;;;;;;;69.57;31.33;;;;;;;-6.46;69.72;100781.29;2249369;79;20980;-80
2022/03/01 04:13:42;;;;;;;82.67;31.47;;;;;;;-6.43;69.76;100770.55;2249351;78;21407;-83
2022/03/01 04:16:42;;;;;;;84.83;35.27;;;;;;;-6.45;70.08;100772.03;2249346;78;20921;-82
2022/03/01 04:19:43;;;;;;;118.13;39.93;;;;;;;-6.44;70.03;100767.48;2249175;78;20920;-82
2022/03/01 04:22:43;;;;;;;82.13;34.50;;;;;;;-6.45;70.17;100763.13;2249422;78;20908;-81
2022/03/01 04:25:44;;;;;;;109.27;39.67;;;;;;;-6.43;69.81;100766.37;2248567;79;20947;-82
2022/03/01 04:28:45;;;;;;;81.37;34.23;;;;;;;-6.50;69.68;100767.72;2249263;79;20940;-82
2022/03/01 04:31:45;;;;;;;113.53;38.20;;;;;;;-6.57;69.53;100765.25;2248577;79;20964;-81
2022/03/01 04:34:46;;;;;;;100.63;42.73;;;;;;;-6.59;69.83;100762.91;2249073;78;20939;-82
2022/03/01 04:37:46;;;;;;;94.67;38.37;;;;;;;-6.59;69.73;100762.91;2248520;78;21327;-83
2022/03/01 04:40:47;;;;;;;207.37;51.60;;;;;;;-6.65;69.50;100771.50;2248753;78;21387;-82
2022/03/01 04:43:47;;;;;;;132.97;41.00;;;;;;;-6.76;69.51;100763.98;2263092;78;20992;-82
2022/03/01 04:46:48;;;;;;;99.47;39.97;;;;;;;-6.78;69.69;100767.62;2267848;78;20995;-81
2022/03/01 04:49:48;;;;;;;97.00;38.20;;;;;;;-6.82;69.40;100774.73;2291276;78;21316;-81
2022/03/01 04:52:49;;;;;;;106.07;42.50;;;;;;;-6.89;69.48;100768.45;2289463;78;21736;-82
2022/03/01 04:55:49;;;;;;;153.73;41.70;;;;;;;-6.91;69.57;100772.45;2290547;78;20967;-84
2022/03/01 04:58:50;;;;;;;102.93;40.43;;;;;;;-6.88;69.85;100774.96;2289750;78;20975;-85
2022/03/01 05:01:50;;;;;;;94.83;37.40;;;;;;;-6.84;70.00;100768.59;2290513;78;20919;-81
2022/03/01 05:04:51;;;;;;;104.47;39.90;;;;;;;-6.84;69.70;100765.67;2291807;78;20884;-81
2022/03/01 05:07:51;;;;;;;101.60;40.63;;;;;;;-6.88;69.39;100767.72;2290236;78;20908;-81
2022/03/01 05:10:51;;;;;;;107.43;42.17;;;;;;;-6.90;69.61;100766.64;2290268;78;20929;-83
2022/03/01 05:13:52;;;;;;;101.57;40.10;;;;;;;-6.90;69.60;100766.27;2291494;78;21015;-84
2022/03/01 05:16:53;;;;;;;106.87;41.50;;;;;;;-6.90;69.61;100762.83;2291709;78;21002;-82
2022/03/01 05:19:54;;;;;;;112.57;42.97;;;;;;;-6.92;69.20;100762.66;2289893;78;21203;-84
2022/03/01 05:22:54;;;;;;;104.90;42.37;;;;;;;-6.94;69.17;100775.89;2290422;78;21011;-84
2022/03/01 05:25:55;;;;;;;93.23;39.60;;;;;;;-6.95;69.34;100769.91;2289758;77;21003;-82
2022/03/01 05:28:55;;;;;;;152.23;42.30;;;;;;;-6.95;69.42;100774.08;2290356;78;20990;-80
2022/03/01 05:31:56;;;;;;;101.00;41.63;;;;;;;-6.94;69.46;100759.02;2290060;78;21046;-83
2022/03/01 05:34:56;;;;;;;94.87;40.10;;;;;;;-6.91;69.54;100764.47;2290655;78;20948;-84
2022/03/01 05:37:57;;;;;;;90.70;38.53;;;;;;;-6.83;69.39;100758.96;2291167;78;21355;-79
2022/03/01 05:40:58;;;;;;;1423.03;173.30;;;;;;;-6.82;68.98;100762.03;2291759;78;20987;-79
2022/03/01 05:43:58;;;;;;;203.70;46.90;;;;;;;-6.82;69.24;100756.95;2282687;78;21048;-84
2022/03/01 05:46:59;;;;;;;137.57;40.67;;;;;;;-6.70;69.47;100761.20;2280792;78;20938;-86
2022/03/01 05:53:06;;;;;;;113.93;39.63;;;;;;;-6.63;69.07;100763.31;2249272;79;21067;-83
2022/03/01 05:56:07;;;;;;;175.13;57.23;;;;;;;-6.63;68.98;100762.41;2274492;78;20985;-83
2022/03/01 05:59:07;;;;;;;108.23;41.33;;;;;;;-6.59;68.84;100767.98;2280403;78;21047;-84
2022/03/01 06:02:08;;;;;;;104.83;40.43;;;;;;;-6.57;68.75;100768.16;2279679;78;21008;-82
2022/03/01 06:05:08;;;;;;;169.53;45.40;;;;;;;-6.53;69.00;100765.22;2279795;78;20961;-84
2022/03/01 06:08:09;;;;;;;149.60;42.07;;;;;;;-6.45;69.01;100766.95;2279993;78;21591;-84
2022/03/01 06:11:09;;;;;;;146.03;44.03;;;;;;;-6.34;68.97;100771.92;2278614;78;21928;-83
2022/03/01 06:14:10;;;;;;;109.27;42.47;;;;;;;-6.19;69.14;100764.67;2279676;78;21095;-83
2022/03/01 06:17:11;;;;;;;103.73;40.73;;;;;;;-5.99;69.21;100777.01;2279825;78;20953;-83
2022/03/01 06:20:14;;;;;;;93.63;40.03;;;;;;;-5.87;68.78;100779.18;2258617;78;21025;-82
2022/03/01 06:23:14;;;;;;;93.97;39.37;;;;;;;-5.73;69.23;100787.38;2279371;78;21001;-81
2022/03/01 06:26:15;;;;;;;181.30;44.97;;;;;;;-5.52;69.24;100785.45;2278135;78;21258;-84
2022/03/01 06:29:15;;;;;;;111.73;42.50;;;;;;;-5.32;69.24;100786.26;2277891;78;20965;-82
2022/03/01 06:32:16;;;;;;;100.50;38.60;;;;;;;-5.07;69.34;100789.74;2277952;78;20977;-82
2022/03/01 06:35:17;;;;;;;111.47;40.50;;;;;;;-4.90;69.10;100779.65;2278838;78;20985;-82
2022/03/01 06:38:23;;;;;;;699.20;85.13;;;;;;;-4.67;69.32;100780.72;2279808;78;21371;-81
2022/03/01 06:41:24;;;;;;;120.73;50.77;;;;;;;-4.49;69.41;100781.69;2281758;78;20945;-81
2022/03/01 06:44:24;;;;;;;109.67;50.53;;;;;;;-4.28;69.66;100778.78;2250157;77;21054;-85
2022/03/01 06:47:25;;;;;;;98.20;41.87;;;;;;;-4.13;69.78;100783.61;2247611;79;20939;-83
2022/03/01 06:50:26;;;;;;;95.80;42.63;;;;;;;-4.02;69.98;100779.20;2248258;79;20928;-83
2022/03/01 06:53:27;;;;;;;93.07;42.53;;;;;;;-3.72;70.11;100777.50;2249977;79;21051;-84
2022/03/01 06:56:27;;;;;;;101.33;44.43;;;;;;;-3.46;70.04;100773.32;2249402;79;20928;-82
2022/03/01 06:59:29;;;;;;;100.63;46.33;;;;;;;-3.20;70.06;100769.45;2250336;79;20964;-83
2022/03/01 07:05:32;;;;;;;97.03;44.13;;;;;;;-2.81;69.70;100773.63;2221411;79;21030;-84
2022/03/01 07:08:33;;;;;;;98.07;44.37;;;;;;;-2.69;69.53;100770.95;2249060;79;20990;-82
2022/03/01 07:11:34;;;;;;;99.63;43.47;;;;;;;-2.48;69.64;100769.91;2249065;79;21631;-81
2022/03/01 07:14:34;;;;;;;105.27;43.57;;;;;;;-2.36;70.37;100763.00;2247532;79;21039;-78
2022/03/01 07:17:36;;;;;;;83.67;38.43;;;;;;;1.50;80.23;100740.97;2248154;79;26325;-83
2022/03/01 07:20:39;;;;;;;86.60;37.50;;;;;;;1.96;66.84;100738.08;2248476;79;20936;-84
2022/03/01 07:23:40;;;;;;;68.83;34.40;;;;;;;1.30;64.89;100737.23;2248359;79;21011;-83
2022/03/01 07:26:41;;;;;;;73.97;36.47;;;;;;;0.92;64.29;100746.28;2247945;79;21242;-83
2022/03/01 07:29:41;;;;;;;194.47;41.23;;;;;;;0.60;64.42;100739.81;2248107;79;21018;-83
2022/03/01 07:32:42;;;;;;;64.73;33.73;;;;;;;0.43;64.81;100743.07;2247727;79;20999;-84
2022/03/01 07:35:43;;;;;;;64.27;34.30;;;;;;;0.34;64.96;100739.36;2247486;79;20956;-83
2022/03/01 07:38:43;;;;;;;61.10;33.07;;;;;;;0.35;65.16;100741.16;2248909;79;20919;-83
2022/03/01 07:41:44;;;;;;;73.17;36.47;;;;;;;0.39;65.35;100740.63;2248911;78;21011;-82
2022/03/01 07:44:44;;;;;;;64.63;33.73;;;;;;;0.43;65.29;100745.25;2278588;77;20994;-83
2022/03/01 07:47:45;;;;;;;53.80;30.17;;;;;;;0.46;65.22;100740.75;2278867;78;21030;-77
2022/03/01 07:50:45;;;;;;;52.43;30.97;;;;;;;0.51;65.33;100738.17;2276634;78;21008;-82
2022/03/01 07:53:46;;;;;;;60.37;32.80;;;;;;;0.62;65.54;100734.41;2280156;78;21021;-83
2022/03/01 07:56:46;;;;;;;60.40;29.57;;;;;;;0.75;65.16;100732.83;2280272;78;21012;-83
2022/03/01 07:59:47;;;;;;;62.13;30.60;;;;;;;0.86;65.04;100736.77;2280895;78;20953;-83
2022/03/01 08:02:48;;;;;;;49.67;27.03;;;;;;;0.97;64.85;100728.66;2280482;78;21354;-82
2022/03/01 08:05:48;;;;;;;47.53;26.10;;;;;;;1.10;64.73;100726.27;2280943;78;20973;-83
2022/03/01 08:08:49;;;;;;;62.43;29.00;;;;;;;1.25;63.44;100730.44;2280462;78;21345;-81
2022/03/01 08:11:49;;;;;;;42.47;23.17;;;;;;;1.33;63.45;100725.89;2280523;78;20993;-80
2022/03/01 08:14:50;;;;;;;35.57;20.77;;;;;;;1.47;62.75;100725.28;2279746;78;21020;-81
2022/03/01 08:17:51;;;;;;;47.67;23.40;;;;;;;1.57;62.38;100721.36;2279858;78;21880;-81
2022/03/01 08:20:51;;;;;;;37.80;20.30;;;;;;;1.71;62.34;100712.11;2279143;78;21341;-81
2022/03/01 08:23:52;;;;;;;42.27;23.37;;;;;;;1.81;60.72;100722.36;2279623;78;20956;-82
2022/03/01 08:32:57;;;;;;;53.67;17.23;;;;;;;2.30;59.33;100722.18;2259865;78;21037;-82
2022/03/01 08:35:58;;;;;;;26.73;14.60;;;;;;;2.47;58.51;100718.77;2279580;78;20993;-82
2022/03/01 08:38:58;;;;;;;26.77;13.37;;;;;;;2.61;57.33;100717.63;2280865;78;20957;-79
2022/03/01 08:41:59;;;;;;;25.47;14.03;;;;;;;2.72;57.50;100709.89;2278071;78;21012;-80
2022/03/01 08:44:59;;;;;;;25.53;12.37;;;;;;;2.81;56.16;100710.94;2278108;78;21088;-82
2022/03/01 08:48:00;;;;;;;51.50;12.87;;;;;;;2.87;56.41;100704.94;2278417;78;21013;-83
2022/03/01 08:51:01;;;;;;;14.93;9.33;;;;;;;2.91;55.32;100694.44;2278955;78;20930;-81
2022/03/01 08:54:02;;;;;;;17.17;9.50;;;;;;;2.92;52.65;100692.36;2279580;78;20958;-81
2022/03/01 08:57:03;;;;;;;25.13;10.23;;;;;;;2.99;54.67;100688.14;2279716;78;20982;-81
2022/03/01 09:00:03;;;;;;;14.67;6.73;;;;;;;3.04;53.86;100683.81;2279102;78;20945;-83
2022/03/01 09:03:04;;;;;;;11.77;7.73;;;;;;;3.06;50.74;100679.66;2278999;78;20978;-79
2022/03/01 09:06:06;;;;;;;182.53;15.23;;;;;;;3.04;52.17;100676.47;2258063;78;20985;-82
2022/03/01 09:09:07;;;;;;;23.23;9.27;;;;;;;3.19;52.33;100682.30;2277915;78;20985;-82
2022/03/01 09:12:07;;;;;;;11.00;7.27;;;;;;;3.38;52.83;100677.13;2278076;78;21072;-82
2022/03/01 09:15:08;;;;;;;15.23;8.00;;;;;;;3.50;51.77;100675.42;2278516;78;21001;-80
2022/03/01 09:18:08;;;;;;;14.23;9.00;;;;;;;3.53;49.99;100678.22;2278391;78;20968;-80
2022/03/01 09:21:09;;;;;;;39.73;16.60;;;;;;;3.57;49.51;100672.88;2278581;78;20961;-81
2022/03/01 09:24:10;;;;;;;34.30;13.50;;;;;;;3.39;48.82;100675.05;2278491;78;20973;-81
2022/03/01 09:27:10;;;;;;;26.17;11.27;;;;;;;3.32;49.41;100670.25;2278750;78;20994;-82
2022/03/01 09:30:13;;;;;;;20.87;12.40;;;;;;;3.36;51.00;100667.98;2257271;78;21071;-83
2022/03/01 09:33:13;;;;;;;20.17;10.40;;;;;;;3.43;48.81;100671.89;2277912;78;21408;-82
2022/03/01 09:36:14;;;;;;;19.83;11.87;;;;;;;3.53;50.16;100669.58;2278814;78;20958;-83
2022/03/01 09:39:14;;;;;;;120.23;15.23;;;;;;;3.60;49.95;100670.50;2279746;78;20941;-83
2022/03/01 09:42:15;;;;;;;71.50;15.93;;;;;;;3.59;49.19;100670.89;2279157;78;20962;-82
2022/03/01 09:45:15;;;;;;;16.20;11.33;;;;;;;3.76;50.60;100667.77;2248211;78;21035;-82
2022/03/01 09:48:19;;;;;;;18.40;9.57;;;;;;;3.79;48.02;100671.84;2245815;79;21003;-82
2022/03/01 09:51:19;;;;;;;11.70;7.37;;;;;;;3.69;47.55;100668.55;2245942;79;20979;-82
2022/03/01 09:54:20;;;;;;;11.43;6.83;;;;;;;3.81;45.52;100655.16;2247475;78;21617;-83
2022/03/01 09:57:21;;;;;;;21.63;6.37;;;;;;;3.99;45.77;100656.78;2246891;79;20987;-83
2022/03/01 10:00:22;;;;;;;9.50;6.17;;;;;;;4.11;43.67;100658.49;2246562;79;21331;-82
2022/03/01 10:03:23;;;;;;;7.63;4.50;;;;;;;4.22;45.03;100651.84;2247343;79;20940;-82
2022/03/01 10:06:23;;;;;;;10.00;5.00;;;;;;;4.32;43.70;100646.08;2247000;79;21000;-85
2022/03/01 10:09:24;;;;;;;7.03;4.57;;;;;;;4.33;40.49;100647.87;2246853;79;21010;-83
2022/03/01 10:12:25;;;;;;;6.27;4.50;;;;;;;4.36;42.12;100634.28;2246671;79;21071;-83
2022/03/01 10:15:25;;;;;;;4.47;3.43;;;;;;;4.48;40.19;100637.26;2247194;79;20990;-82
2022/03/01 10:18:26;;;;;;;6.50;4.43;;;;;;;4.57;37.39;100630.88;2248244;79;20967;-82
2022/03/01 10:21:26;;;;;;;6.83;3.97;;;;;;;4.61;37.20;100630.28;2247631;78;20876;-83
2022/03/01 10:24:27;;;;;;;7.70;4.23;;;;;;;4.57;38.48;100617.55;2247455;79;20994;-81
2022/03/01 10:27:28;;;;;;;5.20;3.70;;;;;;;4.63;38.29;100618.34;2247768;79;20932;-83
2022/03/01 10:30:29;;;;;;;4.17;3.57;;;;;;;4.63;37.30;100606.70;2247726;79;21019;-83
2022/03/01 10:33:29;;;;;;;4.90;3.77;;;;;;;4.64;34.65;100600.73;2247860;79;20999;-83
2022/03/01 10:36:30;;;;;;;451.20;28.57;;;;;;;4.54;36.13;100597.06;2247555;79;20998;-82
2022/03/01 10:39:30;;;;;;;15.23;5.83;;;;;;;4.67;37.21;100590.17;2246713;78;21582;-83
2022/03/01 10:42:31;;;;;;;4.33;3.60;;;;;;;4.90;32.80;100590.31;2246527;78;21434;-84
2022/03/01 10:48:40;;;;;;;6.43;4.60;;;;;;;4.73;33.28;100590.95;2223985;79;20951;-83
2022/03/01 10:51:39;;;;;;;8.60;4.90;;;;;;;4.63;33.91;100579.14;2246293;76;20998;-82
2022/03/01 10:54:42;;;;;;;7.27;5.33;;;;;;;4.65;32.87;100570.19;2247239;79;20992;-83
2022/03/01 10:57:44;;;;;;;38.43;8.07;;;;;;;4.82;32.67;100559.59;2247098;79;20959;-84
2022/03/01 11:00:44;;;;;;;15.30;7.97;;;;;;;4.90;33.71;100551.50;2247194;78;20939;-84
2022/03/01 11:03:48;;;;;;;11.13;6.33;;;;;;;5.01;34.24;100554.73;2246007;79;21011;-83
2022/03/01 11:06:48;;;;;;;15.23;9.07;;;;;;;5.02;33.06;100553.55;2246270;78;20983;-83
2022/03/01 11:09:48;;;;;;;18.13;9.27;;;;;;;5.09;34.83;100539.27;2246732;78;20963;-82
2022/03/01 11:12:49;;;;;;;15.17;9.47;;;;;;;5.21;35.41;100534.87;2247509;78;20964;-82
2022/03/01 11:15:49;;;;;;;15.70;9.67;;;;;;;5.30;35.44;100530.64;2247276;78;21088;-85
2022/03/01 11:18:50;;;;;;;44.77;11.90;;;;;;;5.38;34.53;100528.09;2248089;78;20979;-83
2022/03/01 11:21:51;;;;;;;23.30;12.57;;;;;;;5.32;34.65;100529.92;2247120;79;21051;-82
2022/03/01 11:24:53;;;;;;;18.93;10.13;;;;;;;5.33;35.54;100524.34;2225048;79;20975;-83
2022/03/01 11:27:54;;;;;;;14.43;8.90;;;;;;;5.40;34.53;100514.84;2246503;79;20959;-83
2022/03/01 11:30:55;;;;;;;14.13;7.87;;;;;;;5.45;33.91;100526.36;2246846;79;20974;-83
2022/03/01 11:33:56;;;;;;;12.90;8.73;;;;;;;5.44;33.99;100506.05;2246640;79;20991;-82
2022/03/01 11:36:57;;;;;;;68.93;12.93;;;;;;;5.30;33.33;100509.92;2247564;78;20893;-83
2022/03/01 11:39:57;;;;;;;729.20;53.97;;;;;;;5.12;35.81;100509.69;2247060;79;21010;-82
2022/03/01 11:42:58;;;;;;;21.77;8.03;;;;;;;6.86;41.62;100494.98;2249524;77;20972;-83
2022/03/01 11:45:58;;;;;;;14.47;6.97;;;;;;;7.69;34.17;100486.72;2289550;78;20967;-84
2022/03/01 11:48:59;;;;;;;14.63;7.50;;;;;;;7.10;31.39;100484.60;2288520;78;20916;-83
2022/03/01 11:52:02;;;;;;;14.57;7.77;;;;;;;6.47;31.48;100477.77;2288036;78;21423;-83
2022/03/01 11:55:03;;;;;;;51.63;8.93;;;;;;;6.00;32.39;100472.55;2288425;78;20976;-83
2022/03/01 11:58:03;;;;;;;12.27;7.83;;;;;;;5.86;33.26;100471.73;2288824;78;20976;-82
2022/03/01 12:01:04;;;;;;;10.60;7.43;;;;;;;5.80;34.12;100465.32;2288531;78;21029;-82
2022/03/01 12:04:04;;;;;;;15.33;8.77;;;;;;;5.71;34.10;100458.81;2288502;78;20988;-81
2022/03/01 12:07:05;;;;;;;14.00;7.03;;;;;;;5.69;33.56;100460.42;2288246;78;21355;-82
2022/03/01 12:10:05;;;;;;;11.20;6.70;;;;;;;5.58;34.35;100449.86;2288606;78;21411;-84
2022/03/01 12:13:06;;;;;;;11.93;6.63;;;;;;;5.66;34.57;100445.11;2288584;78;21042;-83
2022/03/01 12:16:07;;;;;;;11.13;6.90;;;;;;;5.78;34.70;100443.20;2288719;78;21010;-81
2022/03/01 12:19:07;;;;;;;15.67;5.73;;;;;;;5.88;34.28;100435.55;2289660;78;20955;-82
2022/03/01 12:22:08;;;;;;;11.03;6.17;;;;;;;5.75;34.54;100430.97;2289347;78;21092;-83
2022/03/01 12:25:08;;;;;;;10.23;6.43;;;;;;;5.77;34.36;100434.95;2289231;78;20947;-82
2022/03/01 12:28:11;;;;;;;10.83;6.50;;;;;;;5.81;34.66;100422.65;2289380;78;20959;-85
2022/03/01 12:31:11;;;;;;;6.73;4.83;;;;;;;5.70;32.75;100433.70;2289721;78;21027;-83
2022/03/01 12:34:12;;;;;;;9.27;5.33;;;;;;;5.59;32.12;100430.92;2290494;78;20944;-82
2022/03/01 12:37:17;;;;;;;6.23;4.60;;;;;;;5.57;32.19;100417.39;2289855;78;20944;-82
2022/03/01 12:40:18;;;;;;;7.33;5.10;;;;;;;5.58;31.49;100413.59;2289372;78;20967;-82
2022/03/01 12:43:18;;;;;;;5.80;4.73;;;;;;;5.54;32.14;100407.75;2289151;78;20955;-82
2022/03/01 12:49:21;;;;;;;13.57;4.87;;;;;;;5.58;31.16;100401.94;2258469;78;20965;-83
2022/03/01 12:52:22;;;;;;;8.23;6.00;;;;;;;5.57;32.18;100388.50;2278823;78;20970;-83
2022/03/01 12:55:22;;;;;;;9.20;5.70;;;;;;;5.47;32.03;100386.19;2280253;78;21310;-84
2022/03/01 12:58:23;;;;;;;105.10;9.63;;;;;;;5.35;33.02;100381.62;2280614;78;21035;-82
2022/03/01 13:01:24;;;;;;;9.30;6.03;;;;;;;5.32;32.38;100372.38;2279446;78;20997;-84
2022/03/01 13:04:24;;;;;;;23.33;5.97;;;;;;;5.25;30.85;100378.91;2280275;77;21347;-84
2022/03/01 13:07:25;;;;;;;14.17;6.47;;;;;;;5.23;31.99;100368.87;2279220;78;20965;-82
2022/03/01 13:10:25;;;;;;;10.60;6.23;;;;;;;5.18;31.57;100368.08;2279863;77;20969;-84
2022/03/01 13:13:25;;;;;;;10.30;6.23;;;;;;;5.11;32.12;100362.95;2280044;77;20993;-84
2022/03/01 13:16:26;;;;;;;9.30;6.87;;;;;;;5.02;32.83;100350.78;2279237;78;20990;-83
2022/03/01 13:19:27;;;;;;;9.67;5.77;;;;;;;5.01;33.06;100356.36;2278681;78;20978;-79
2022/03/01 13:22:27;;;;;;;13.13;6.80;;;;;;;5.03;33.60;100348.68;2278579;78;20918;-83
2022/03/01 13:25:28;;;;;;;8.03;5.83;;;;;;;4.99;33.28;100346.31;2278156;78;20953;-82
2022/03/01 13:28:28;;;;;;;8.67;5.87;;;;;;;5.00;34.10;100335.16;2277537;78;21033;-82
2022/03/01 13:31:30;;;;;;;8.77;6.27;;;;;;;5.06;34.39;100334.22;2278324;78;20986;-84
2022/03/01 13:34:30;;;;;;;324.30;127.43;;;;;;;5.08;34.02;100339.08;2279109;78;20965;-83
2022/03/01 13:37:31;;;;;;;142.77;53.93;;;;;;;5.03;33.44;100326.28;2278821;78;20969;-82
2022/03/01 13:40:31;;;;;;;54.80;27.07;;;;;;;5.06;33.44;100316.50;2279477;78;20973;-81
2022/03/01 13:43:32;;;;;;;16.60;8.73;;;;;;;5.03;32.61;100315.92;2280553;77;20973;-82
2022/03/01 13:49:35;;;;;;;8.87;5.90;;;;;;;5.01;33.18;100305.89;2263821;78;20963;-83
2022/03/01 13:52:35;;;;;;;10.13;5.93;;;;;;;4.96;32.66;100303.45;2288223;78;21042;-82
2022/03/01 13:55:36;;;;;;;8.13;5.87;;;;;;;4.94;32.67;100302.47;2288482;77;21439;-82
2022/03/01 13:58:36;;;;;;;24.87;6.27;;;;;;;4.95;32.33;100302.95;2288361;78;20979;-82
2022/03/01 14:01:37;;;;;;;13.47;5.87;;;;;;;4.97;33.13;100299.16;2289236;78;20932;-83
2022/03/01 14:04:38;;;;;;;8.57;5.47;;;;;;;4.97;32.49;100289.70;2289154;78;20991;-83
2022/03/01 14:07:38;;;;;;;13.13;6.00;;;;;;;4.87;33.05;100290.38;2288392;78;20983;-82
2022/03/01 14:10:39;;;;;;;11.37;6.33;;;;;;;4.75;32.92;100294.05;2287579;78;20967;-82
2022/03/01 14:13:42;;;;;;;47.07;8.10;;;;;;;4.68;32.95;100286.73;2287843;78;21034;-83
2022/03/01 14:16:43;;;;;;;27.80;7.37;;;;;;;4.67;33.89;100278.89;2287533;78;21011;-82
2022/03/01 14:19:43;;;;;;;18.57;8.90;;;;;;;4.63;33.72;100275.23;2287913;78;20968;-84
2022/03/01 14:22:44;;;;;;;13.83;7.23;;;;;;;4.67;34.17;100281.08;2287638;78;21180;-82
2022/03/01 14:25:44;;;;;;;20.17;8.17;;;;;;;4.72;34.06;100272.29;2288061;78;20979;-84
2022/03/01 14:28:45;;;;;;;92.37;29.73;;;;;;;4.68;33.83;100265.16;2287876;78;21058;-84
2022/03/01 14:31:46;;;;;;;15.20;8.83;;;;;;;4.65;34.39;100267.56;2288321;78;20983;-84
2022/03/01 14:34:46;;;;;;;26.10;12.40;;;;;;;4.64;34.65;100278.72;2288880;78;20936;-84
2022/03/01 14:37:50;;;;;;;53.23;20.47;;;;;;;4.60;35.07;100271.18;2265537;78;20995;-85
2022/03/01 14:40:50;;;;;;;17.40;9.17;;;;;;;4.58;35.33;100273.19;2289701;78;21027;-84